Time;durP1;ratioP1;P1;durP2;ratioP2;P2;SDS_P1;SDS_P2;PMS_P1;PMS_P2;Temp;Humidity;BMP_temperature;BMP_pressure;BME280_temperature;BME280_humidity;BME280_pressure;Samples;Min_cycle;Max_cycle;Signal;HPM_P1;HPM_P2
2023/08/16 00:01:10;;;;;;;7.53;3.20;;;;;;;18.85;79.36;101787.66;4838742;29;20060;-90
2023/08/16 00:03:35;;;;;;;5.60;2.72;;;;;;;18.83;79.47;101787.72;4825632;29;20022;-90
2023/08/16 00:06:08;;;;;;;5.65;3.20;;;;;;;18.83;78.45;101790.34;4841672;29;20030;-90
2023/08/16 00:08:33;;;;;;;7.18;3.15;;;;;;;18.78;78.28;101785.28;4840603;29;20507;-89
2023/08/16 00:10:58;;;;;;;6.07;3.47;;;;;;;18.75;78.40;101787.22;4839200;29;20034;-89
2023/08/16 00:13:24;;;;;;;5.00;3.38;;;;;;;18.67;79.20;101795.47;4842958;29;20026;-91
2023/08/16 00:15:49;;;;;;;7.22;3.60;;;;;;;18.64;79.03;101795.59;4843876;29;20033;-90
2023/08/16 00:18:14;;;;;;;5.82;3.30;;;;;;;18.59;80.56;101793.19;4838542;29;20505;-90
2023/08/16 00:20:39;;;;;;;4.93;3.28;;;;;;;18.61;80.58;101798.38;4845115;29;20033;-90
2023/08/16 00:23:05;;;;;;;5.65;3.15;;;;;;;18.63;80.95;101800.00;4841748;29;20154;-90
2023/08/16 00:25:30;;;;;;;4.63;3.30;;;;;;;18.64;80.51;101801.72;4839725;29;20490;-90
2023/08/16 00:27:55;;;;;;;7.00;3.08;;;;;;;18.66;79.98;101797.22;4824041;29;20125;-89
2023/08/16 00:30:21;;;;;;;5.35;3.20;;;;;;;18.68;80.44;101807.72;4843462;29;20033;-90
2023/08/16 00:32:46;;;;;;;4.88;2.78;;;;;;;18.68;80.49;101802.47;4843475;29;20021;-89
2023/08/16 00:35:11;;;;;;;5.90;3.13;;;;;;;18.66;80.10;101799.88;4843434;29;20435;-89
2023/08/16 00:37:36;;;;;;;4.88;3.15;;;;;;;18.62;79.52;101803.56;4842525;29;20065;-89
2023/08/16 00:40:03;;;;;;;5.20;3.30;;;;;;;18.61;79.85;101798.38;4818596;29;21419;-90
2023/08/16 00:42:28;;;;;;;4.65;3.13;;;;;;;18.59;79.95;101793.19;4842096;29;20033;-90
2023/08/16 00:44:53;;;;;;;6.13;3.10;;;;;;;18.59;80.41;101798.44;4837800;29;20034;-89
2023/08/16 00:47:18;;;;;;;5.38;3.20;;;;;;;18.58;81.16;101806.41;4841545;29;20034;-90
2023/08/16 00:49:44;;;;;;;5.88;3.17;;;;;;;18.55;81.93;101812.69;4839649;29;20475;-89
2023/08/16 00:52:09;;;;;;;4.40;2.90;;;;;;;18.55;82.02;101817.06;4842928;29;20041;-90
2023/08/16 00:54:35;;;;;;;4.88;3.13;;;;;;;18.57;81.61;101821.38;4841837;29;20105;-90
2023/08/16 00:57:00;;;;;;;4.28;2.80;;;;;;;18.55;81.59;101820.59;4838488;29;20033;-89
2023/08/16 00:59:27;;;;;;;4.45;2.90;;;;;;;18.55;81.37;101823.22;4829447;29;20041;-90
2023/08/16 01:01:52;;;;;;;5.60;3.00;;;;;;;18.53;80.83;101811.88;4843055;29;20037;-90
2023/08/16 01:04:18;;;;;;;5.30;3.10;;;;;;;18.51;80.05;101808.47;4843546;29;20038;-89
2023/08/16 01:06:44;;;;;;;5.32;3.35;;;;;;;18.49;79.93;101813.81;4845078;29;20655;-89
2023/08/16 01:09:09;;;;;;;5.05;3.47;;;;;;;18.47;80.11;101815.66;4837177;29;20031;-89
2023/08/16 01:12:00;;;;;;;4.53;3.28;;;;;;;18.52;80.23;101817.25;4842673;29;20033;-90
2023/08/16 01:14:40;;;;;;;6.45;3.53;;;;;;;18.50;78.99;101817.28;4835176;29;20086;-91
2023/08/16 01:17:06;;;;;;;6.10;3.30;;;;;;;18.48;80.31;101822.63;4825060;29;20034;-90
2023/08/16 01:19:33;;;;;;;5.07;3.22;;;;;;;18.44;80.43;101831.59;4839992;29;20037;-89
2023/08/16 01:22:08;;;;;;;5.07;3.33;;;;;;;18.44;80.76;101830.75;4840198;29;20057;-89
2023/08/16 01:24:46;;;;;;;4.43;3.40;;;;;;;18.46;80.39;101837.66;4830217;29;20467;-90
2023/08/16 01:27:11;;;;;;;4.65;3.40;;;;;;;18.49;81.05;101836.66;4840577;29;20470;-90
2023/08/16 01:29:40;;;;;;;4.65;3.28;;;;;;;18.50;80.94;101846.28;4841719;29;20037;-90
2023/08/16 01:32:06;;;;;;;4.55;3.05;;;;;;;18.50;82.14;101838.38;4829532;29;20026;-89
2023/08/16 01:34:31;;;;;;;4.70;3.30;;;;;;;18.46;82.21;101835.00;4821008;29;20037;-90
2023/08/16 01:36:56;;;;;;;5.80;3.35;;;;;;;18.45;81.55;101848.22;4842354;29;20042;-90
2023/08/16 01:39:22;;;;;;;5.20;3.42;;;;;;;18.42;81.75;101837.84;4838871;29;20466;-89
2023/08/16 01:41:54;;;;;;;4.10;2.97;;;;;;;18.39;82.64;101840.63;4839941;29;20481;-89
2023/08/16 01:44:21;;;;;;;4.13;3.10;;;;;;;18.37;82.90;101837.19;4831595;29;20038;-90
2023/08/16 01:46:47;;;;;;;4.30;2.95;;;;;;;18.38;84.19;101844.16;4828513;29;20471;-89
2023/08/16 01:49:13;;;;;;;3.80;3.05;;;;;;;18.38;82.73;101852.06;4834188;29;20109;-90
2023/08/16 01:51:38;;;;;;;4.28;3.08;;;;;;;18.41;82.42;101857.22;4837151;29;20045;-90
2023/08/16 01:54:04;;;;;;;5.82;3.35;;;;;;;18.41;81.79;101851.94;4839267;29;20390;-90
2023/08/16 01:56:29;;;;;;;7.40;3.60;;;;;;;18.41;81.59;101851.94;4839281;29;20086;-90
2023/08/16 01:58:54;;;;;;;5.57;3.38;;;;;;;18.39;83.06;101848.53;4838945;29;20026;-89
2023/08/16 02:01:21;;;;;;;4.63;3.25;;;;;;;18.37;83.04;101842.44;4840145;29;20030;-90
2023/08/16 02:03:46;;;;;;;4.35;3.08;;;;;;;18.33;83.45;101844.38;4825601;29;20029;-90
2023/08/16 02:06:11;;;;;;;4.47;3.38;;;;;;;18.31;83.22;101847.06;4841770;29;20458;-90
2023/08/16 02:08:37;;;;;;;5.25;3.42;;;;;;;18.26;82.37;101849.06;4842561;29;20030;-89
2023/08/16 02:11:02;;;;;;;4.45;3.17;;;;;;;18.26;82.41;101864.84;4840867;29;20471;-89
2023/08/16 02:13:27;;;;;;;5.78;3.08;;;;;;;18.28;83.12;101862.97;4840981;29;20033;-90
2023/08/16 02:16:00;;;;;;;4.10;2.92;;;;;;;18.27;82.46;101860.44;4840932;29;20447;-90
2023/08/16 02:18:26;;;;;;;5.57;2.97;;;;;;;18.25;83.56;101849.09;4840744;29;20096;-90
2023/08/16 02:20:52;;;;;;;4.82;2.90;;;;;;;18.22;83.07;101851.84;4838936;29;20464;-89
2023/08/16 02:23:17;;;;;;;6.38;3.10;;;;;;;18.20;83.20;101860.66;4840079;29;20038;-89
2023/08/16 02:25:43;;;;;;;5.75;3.00;;;;;;;18.16;83.13;101858.25;4839994;29;20042;-89
2023/08/16 02:28:09;;;;;;;4.78;2.88;;;;;;;18.13;83.53;101847.81;4841241;29;20038;-90
2023/08/16 02:30:34;;;;;;;4.63;2.88;;;;;;;18.12;83.39;101851.38;4840827;29;20037;-90
2023/08/16 02:32:59;;;;;;;6.18;3.30;;;;;;;18.10;83.91;101840.91;4839386;29;20042;-89
2023/08/16 02:35:25;;;;;;;4.25;2.90;;;;;;;18.08;83.84;101839.28;4839124;29;20093;-90
2023/08/16 02:37:51;;;;;;;4.50;2.72;;;;;;;18.07;84.13;101845.47;4841222;29;20041;-89
2023/08/16 02:40:16;;;;;;;4.60;2.80;;;;;;;18.05;84.14;101850.78;4840298;29;20479;-89
2023/08/16 02:42:42;;;;;;;5.63;2.95;;;;;;;18.04;83.15;101856.97;4841263;29;20045;-89
2023/08/16 02:45:07;;;;;;;4.80;2.80;;;;;;;18.03;83.30;101858.75;4838915;29;20102;-89
2023/08/16 02:47:33;;;;;;;3.60;2.65;;;;;;;18.02;84.25;101857.03;4835357;29;20496;-89
2023/08/16 02:49:58;;;;;;;4.18;3.03;;;;;;;18.02;83.80;101856.16;4835785;29;20053;-90
2023/08/16 02:52:23;;;;;;;2.90;2.33;;;;;;;18.01;83.62;101857.97;4840122;29;20026;-89
2023/08/16 02:54:48;;;;;;;4.05;2.70;;;;;;;18.01;83.18;101843.94;4841462;29;20034;-89
2023/08/16 02:57:16;;;;;;;4.20;2.72;;;;;;;17.98;83.05;101849.34;4832519;29;20034;-89
2023/08/16 02:59:43;;;;;;;4.32;2.90;;;;;;;17.95;83.80;101842.38;4815782;29;20057;-90
2023/08/16 03:02:08;;;;;;;5.32;3.08;;;;;;;17.93;83.71;101828.44;4833984;29;20038;-90
2023/08/16 03:04:39;;;;;;;3.42;2.85;;;;;;;17.93;83.03;101831.06;4831227;29;20053;-90
2023/08/16 03:07:07;;;;;;;4.88;2.90;;;;;;;17.92;83.23;101834.63;4829099;29;20025;-89
2023/08/16 03:09:33;;;;;;;4.43;3.20;;;;;;;17.90;83.43;101846.97;4833940;29;20110;-90
2023/08/16 03:11:58;;;;;;;4.90;3.47;;;;;;;17.90;82.32;101841.72;4817946;29;20128;-90
2023/08/16 03:14:24;;;;;;;4.25;3.08;;;;;;;17.88;82.69;101849.66;4835783;29;20429;-90
2023/08/16 03:16:49;;;;;;;5.35;2.95;;;;;;;17.90;84.13;101846.97;4839992;29;20030;-90
2023/08/16 03:19:14;;;;;;;5.15;2.88;;;;;;;17.91;83.96;101848.69;4840244;29;20044;-89
2023/08/16 03:21:40;;;;;;;4.32;3.40;;;;;;;17.92;83.49;101858.31;4834640;29;20036;-90
2023/08/16 03:24:05;;;;;;;4.82;3.17;;;;;;;17.93;83.63;101848.63;4836793;29;20033;-89
2023/08/16 03:26:31;;;;;;;5.15;3.17;;;;;;;17.92;83.14;101850.41;4845521;29;20113;-89
2023/08/16 03:28:56;;;;;;;4.68;3.15;;;;;;;17.90;82.84;101860.16;4837724;29;20500;-89
2023/08/16 03:31:22;;;;;;;5.30;3.25;;;;;;;17.90;82.54;101861.00;4834513;29;20141;-89
2023/08/16 03:33:48;;;;;;;4.95;3.33;;;;;;;17.90;82.54;101854.88;4840760;29;20046;-90
2023/08/16 03:36:13;;;;;;;5.55;3.53;;;;;;;17.86;82.64;101861.19;4841312;29;20064;-90
2023/08/16 03:38:40;;;;;;;4.93;3.33;;;;;;;17.81;83.64;101853.47;4843713;29;20034;-89
2023/08/16 03:41:05;;;;;;;5.70;3.38;;;;;;;17.81;83.17;101861.38;4838378;29;20034;-90
2023/08/16 03:43:31;;;;;;;4.47;3.28;;;;;;;17.82;83.74;101859.56;4841649;29;20087;-89
2023/08/16 03:45:56;;;;;;;6.03;3.17;;;;;;;17.84;82.93;101863.88;4841764;29;20344;-90
2023/08/16 03:48:21;;;;;;;4.82;3.20;;;;;;;17.83;82.72;101866.56;4837990;29;20478;-90
2023/08/16 03:50:47;;;;;;;5.85;3.25;;;;;;;17.79;83.30;101860.56;4837964;29;20140;-89
2023/08/16 03:53:12;;;;;;;5.82;3.42;;;;;;;17.76;82.51;101858.06;4839500;29;20034;-90
2023/08/16 03:55:38;;;;;;;5.20;3.45;;;;;;;17.73;83.35;101863.44;4841587;29;20038;-89
2023/08/16 03:58:03;;;;;;;4.30;3.33;;;;;;;17.72;83.83;101862.59;4838393;29;20029;-90
2023/08/16 04:00:28;;;;;;;6.40;3.40;;;;;;;17.74;83.64;101873.91;4841874;29;20030;-89
2023/08/16 04:02:54;;;;;;;4.97;3.25;;;;;;;17.75;83.52;101866.88;4827058;29;20022;-89
2023/08/16 04:05:21;;;;;;;4.57;3.10;;;;;;;17.72;83.71;101870.50;4825331;29;20482;-90
2023/08/16 04:07:47;;;;;;;4.10;3.08;;;;;;;17.71;82.92;101874.03;4842564;29;20499;-90
2023/08/16 04:10:12;;;;;;;4.63;3.30;;;;;;;17.70;83.51;101872.31;4842423;29;20109;-89
2023/08/16 04:12:37;;;;;;;5.75;3.22;;;;;;;17.70;83.67;101876.72;4825368;29;20474;-89
2023/08/16 04:15:03;;;;;;;6.55;3.20;;;;;;;17.68;83.24;101868.88;4843841;29;20037;-89
2023/08/16 04:17:29;;;;;;;4.53;3.30;;;;;;;17.65;83.38;101862.91;4842500;29;20038;-89
2023/08/16 04:19:55;;;;;;;5.13;2.83;;;;;;;17.64;83.73;101866.44;4841754;29;20037;-90
2023/08/16 04:22:20;;;;;;;4.05;3.00;;;;;;;17.63;83.49;101870.00;4842745;29;20038;-90
2023/08/16 04:24:46;;;;;;;4.22;2.78;;;;;;;17.61;83.20;101864.78;4833018;29;20030;-90
2023/08/16 04:27:11;;;;;;;5.03;2.95;;;;;;;17.58;83.17;101873.66;4823211;29;20375;-89
2023/08/16 04:29:36;;;;;;;6.03;3.03;;;;;;;17.57;83.04;101871.09;4832352;29;20030;-89
2023/08/16 04:32:02;;;;;;;4.65;2.50;;;;;;;17.56;83.15;101864.97;4840420;29;20053;-89
2023/08/16 04:34:27;;;;;;;3.83;2.80;;;;;;;17.56;82.92;101883.38;4840972;29;20048;-89
2023/08/16 04:36:52;;;;;;;7.45;2.78;;;;;;;17.54;82.56;101881.72;4841978;29;20022;-90
2023/08/16 04:39:18;;;;;;;17.00;3.30;;;;;;;17.53;82.73;101893.16;4842709;29;20061;-89
2023/08/16 04:41:44;;;;;;;5.20;2.80;;;;;;;17.53;83.42;101890.53;4841955;29;20482;-90
2023/08/16 04:44:09;;;;;;;4.13;2.75;;;;;;;17.54;82.57;101892.25;4841101;29;20053;-90
2023/08/16 04:46:34;;;;;;;4.38;2.70;;;;;;;17.56;83.15;101898.31;4838568;29;20090;-89
2023/08/16 04:49:00;;;;;;;5.80;2.53;;;;;;;17.55;82.96;101899.22;4838136;29;20105;-90
2023/08/16 04:51:26;;;;;;;4.88;2.90;;;;;;;17.55;83.01;101899.22;4835286;29;20498;-90
2023/08/16 04:53:51;;;;;;;4.32;2.85;;;;;;;17.54;83.38;101898.34;4843672;29;20057;-90
2023/08/16 04:56:17;;;;;;;4.97;2.60;;;;;;;17.56;83.17;101904.41;4840093;29;20198;-90
2023/08/16 04:58:42;;;;;;;5.03;2.55;;;;;;;17.55;83.21;101902.72;4832424;29;20038;-90
2023/08/16 05:01:09;;;;;;;3.65;2.53;;;;;;;17.55;82.96;101900.06;4833461;29;20038;-90
2023/08/16 05:03:34;;;;;;;4.82;2.67;;;;;;;17.55;82.53;101907.13;4835527;29;20036;-90
2023/08/16 05:06:02;;;;;;;3.03;2.55;;;;;;;17.52;82.59;101894.94;4833333;29;20030;-90
2023/08/16 05:08:28;;;;;;;5.65;2.40;;;;;;;17.54;82.79;101908.03;4834020;29;20101;-90
2023/08/16 05:10:53;;;;;;;5.20;2.47;;;;;;;17.51;82.83;101909.00;4834328;29;20427;-90
2023/08/16 05:13:19;;;;;;;3.72;2.42;;;;;;;17.51;82.54;101906.38;4837415;29;20032;-90
2023/08/16 05:15:45;;;;;;;6.70;2.70;;;;;;;17.50;82.22;101902.03;4832829;29;20030;-90
2023/08/16 05:18:11;;;;;;;3.72;2.35;;;;;;;17.50;82.37;101903.81;4835088;29;20088;-90
2023/08/16 05:20:37;;;;;;;4.22;2.80;;;;;;;17.50;82.75;101903.81;4818615;29;20129;-90
2023/08/16 05:23:03;;;;;;;4.38;2.60;;;;;;;17.50;82.82;101898.53;4837124;29;20105;-90
2023/08/16 05:25:28;;;;;;;4.45;2.53;;;;;;;17.50;83.58;101902.03;4838816;29;20068;-90
2023/08/16 05:27:58;;;;;;;4.22;2.28;;;;;;;17.49;83.08;101899.47;4841320;29;20033;-89
2023/08/16 05:30:23;;;;;;;4.05;2.38;;;;;;;17.48;83.44;101901.25;4841256;29;20062;-90
2023/08/16 05:32:48;;;;;;;3.30;2.20;;;;;;;17.50;83.00;101911.69;4837674;29;20053;-89
2023/08/16 05:35:14;;;;;;;5.30;2.42;;;;;;;17.50;83.47;101911.69;4839014;29;20081;-90
2023/08/16 05:37:39;;;;;;;4.38;2.20;;;;;;;17.50;83.39;101916.97;4840459;29;20090;-89
2023/08/16 05:40:05;;;;;;;2.92;2.15;;;;;;;17.51;82.97;101916.88;4841228;29;20542;-90
2023/08/16 05:42:31;;;;;;;3.05;2.13;;;;;;;17.53;82.72;101928.22;4840187;29;20030;-90
2023/08/16 05:44:56;;;;;;;4.53;2.35;;;;;;;17.55;82.83;101933.44;4841433;29;20383;-90
2023/08/16 05:47:21;;;;;;;3.97;2.47;;;;;;;17.57;82.72;101928.97;4827475;29;20040;-89
2023/08/16 05:49:47;;;;;;;4.72;2.28;;;;;;;17.59;82.68;101932.41;4839209;29;20360;-90
2023/08/16 05:52:12;;;;;;;3.55;2.22;;;;;;;17.58;83.11;101926.28;4835593;29;20045;-89
2023/08/16 05:54:37;;;;;;;4.05;2.40;;;;;;;17.59;83.46;101922.72;4840283;29;20406;-85
2023/08/16 05:57:03;;;;;;;3.88;2.53;;;;;;;17.60;83.29;101924.44;4843712;29;20121;-90
2023/08/16 05:59:30;;;;;;;4.05;2.25;;;;;;;17.61;83.72;101922.66;4841402;29;20060;-90
2023/08/16 06:01:55;;;;;;;4.80;2.20;;;;;;;17.65;83.01;101926.91;4838334;29;20104;-89
2023/08/16 06:04:21;;;;;;;3.90;2.08;;;;;;;17.65;83.08;101926.91;4838067;29;20033;-89
2023/08/16 06:06:46;;;;;;;3.88;2.15;;;;;;;17.68;83.28;101934.69;4840198;29;20037;-89
2023/08/16 06:09:11;;;;;;;3.88;2.28;;;;;;;17.71;83.89;101936.31;4836914;29;20371;-89
2023/08/16 06:11:36;;;;;;;4.85;2.22;;;;;;;17.78;83.59;101936.94;4835084;29;20025;-89
2023/08/16 06:14:03;;;;;;;3.05;2.15;;;;;;;17.82;83.73;101939.41;4839818;29;20432;-89
2023/08/16 06:16:28;;;;;;;3.40;2.03;;;;;;;17.86;83.01;101946.25;4840227;29;20037;-89
2023/08/16 06:18:53;;;;;;;3.78;2.22;;;;;;;17.91;82.57;101948.75;4833778;29;20051;-89
2023/08/16 06:21:18;;;;;;;3.22;2.30;;;;;;;17.94;82.77;101947.75;4839874;29;20453;-90
2023/08/16 06:23:44;;;;;;;4.25;2.22;;;;;;;17.95;82.49;101954.72;4836559;29;20033;-89
2023/08/16 06:26:09;;;;;;;3.35;2.25;;;;;;;17.96;82.03;101949.41;4823859;29;20467;-89
2023/08/16 06:28:35;;;;;;;3.70;2.38;;;;;;;17.99;82.58;101941.41;4835545;29;20094;-90
2023/08/16 06:31:01;;;;;;;4.78;2.50;;;;;;;18.00;82.86;101943.13;4835911;29;20542;-89
2023/08/16 06:33:26;;;;;;;4.07;2.38;;;;;;;18.02;81.60;101941.28;4832822;29;20120;-88
2023/08/16 06:35:54;;;;;;;3.67;2.20;;;;;;;18.04;82.40;101944.72;4838115;29;20046;-88
2023/08/16 06:38:20;;;;;;;5.25;2.38;;;;;;;18.07;82.28;101933.22;4831804;29;20049;-88
2023/08/16 06:40:46;;;;;;;4.22;2.20;;;;;;;18.10;81.74;101935.72;4830983;29;20029;-89
2023/08/16 06:43:11;;;;;;;4.80;2.30;;;;;;;18.13;81.78;101943.50;4840485;29;20336;-88
2023/08/16 06:45:37;;;;;;;4.80;2.28;;;;;;;18.16;81.92;101937.25;4838731;29;20040;-88
2023/08/16 06:48:03;;;;;;;2.83;1.98;;;;;;;18.20;81.64;101931.78;4832084;29;20106;-88
2023/08/16 06:50:28;;;;;;;4.32;2.25;;;;;;;18.22;80.56;101928.22;4825298;29;20038;-88
2023/08/16 06:52:54;;;;;;;2.97;2.10;;;;;;;18.25;81.05;101931.63;4834505;29;20375;-88
2023/08/16 06:55:20;;;;;;;3.67;2.10;;;;;;;18.28;80.93;101928.84;4834353;29;20031;-87
2023/08/16 06:57:45;;;;;;;3.05;2.10;;;;;;;18.30;81.33;101936.69;4842962;29;20340;-88
2023/08/16 07:00:11;;;;;;;4.00;2.20;;;;;;;18.35;80.47;101942.66;4848396;29;20072;-87
2023/08/16 07:02:37;;;;;;;4.35;2.30;;;;;;;18.39;79.80;101948.63;4853558;29;20119;-89
2023/08/16 07:05:03;;;;;;;3.78;2.10;;;;;;;18.42;79.93;101948.50;4849849;29;20481;-87
2023/08/16 07:07:29;;;;;;;3.50;1.90;;;;;;;18.43;78.57;101955.50;4845680;29;20452;-87
2023/08/16 07:09:55;;;;;;;4.38;2.13;;;;;;;18.43;79.03;101950.22;4838348;29;20068;-88
2023/08/16 07:12:20;;;;;;;3.38;1.80;;;;;;;18.39;77.83;101952.09;4843515;29;20517;-90
2023/08/16 07:14:45;;;;;;;4.03;1.80;;;;;;;18.37;79.23;101951.31;4835401;29;20030;-91
2023/08/16 07:17:11;;;;;;;4.22;1.90;;;;;;;18.38;79.39;101960.09;4837258;29;20533;-90
2023/08/16 07:19:36;;;;;;;4.10;2.00;;;;;;;18.37;79.52;101956.59;4837868;29;20042;-91
2023/08/16 07:22:01;;;;;;;5.50;2.05;;;;;;;18.41;79.71;101952.06;4838707;29;20052;-89
2023/08/16 07:24:26;;;;;;;3.13;1.92;;;;;;;18.46;79.05;101952.72;4843398;29;20037;-92
2023/08/16 07:26:52;;;;;;;3.60;1.77;;;;;;;18.53;79.87;101956.81;4843141;29;20389;-92
2023/08/16 07:29:17;;;;;;;3.65;1.92;;;;;;;18.58;80.84;101960.13;4847192;29;20033;-91
2023/08/16 07:31:43;;;;;;;3.13;1.83;;;;;;;18.63;78.87;101963.41;4839137;29;20117;-91
2023/08/16 07:34:08;;;;;;;4.18;1.85;;;;;;;18.66;79.76;101962.44;4842131;29;20029;-91
2023/08/16 07:36:33;;;;;;;2.83;1.90;;;;;;;18.69;78.59;101956.19;4845019;29;20057;-92
2023/08/16 07:38:58;;;;;;;4.72;1.85;;;;;;;18.70;78.25;101957.88;4845029;29;20038;-91
2023/08/16 07:41:24;;;;;;;3.22;1.63;;;;;;;18.71;77.68;101964.88;4841511;29;20022;-92
2023/08/16 07:43:49;;;;;;;3.55;1.73;;;;;;;18.70;77.46;101964.03;4845877;29;20038;-91
2023/08/16 07:46:14;;;;;;;3.10;1.63;;;;;;;18.74;79.56;101968.22;4845656;29;20704;-91
2023/08/16 07:48:40;;;;;;;2.17;1.50;;;;;;;18.77;78.89;101965.47;4844294;29;20482;-92
2023/08/16 07:51:05;;;;;;;2.63;1.60;;;;;;;18.80;78.56;101964.47;4841687;29;20033;-90
2023/08/16 07:53:31;;;;;;;3.22;1.73;;;;;;;18.82;77.25;101965.28;4845202;29;20068;-91
2023/08/16 07:55:56;;;;;;;2.50;1.60;;;;;;;18.83;78.04;101966.16;4844667;29;20030;-91
2023/08/16 07:58:21;;;;;;;2.83;1.63;;;;;;;18.82;78.36;101973.19;4843098;29;20186;-90
2023/08/16 08:00:51;;;;;;;4.05;1.80;;;;;;;18.86;78.76;101974.78;4846266;29;20056;-91
2023/08/16 08:03:17;;;;;;;4.53;1.98;;;;;;;18.90;78.57;101983.41;4844505;29;20333;-91
2023/08/16 08:05:42;;;;;;;4.43;1.75;;;;;;;18.98;78.96;101977.81;4829230;29;20478;-90
2023/08/16 08:08:10;;;;;;;3.78;1.63;;;;;;;19.06;78.89;101975.72;4846009;29;20478;-92
2023/08/16 08:10:35;;;;;;;4.07;1.88;;;;;;;19.17;78.38;101988.44;4827473;29;20025;-91
2023/08/16 08:13:00;;;;;;;3.95;1.55;;;;;;;19.24;78.23;101979.31;4845002;29;20033;-91
2023/08/16 08:15:25;;;;;;;3.28;1.67;;;;;;;19.28;78.13;101986.19;4846012;29;20033;-91
2023/08/16 08:17:51;;;;;;;4.88;1.60;;;;;;;19.35;77.60;101982.38;4845341;29;20033;-92
2023/08/16 08:20:16;;;;;;;3.30;1.65;;;;;;;19.41;77.09;101975.94;4844292;29;20484;-91
2023/08/16 08:22:42;;;;;;;2.15;1.90;;;;;;;19.47;77.72;101975.66;4839359;29;20120;-91
2023/08/16 08:25:08;;;;;;;2.80;1.80;;;;;;;19.54;76.36;101981.53;4850492;29;20034;-91
2023/08/16 08:27:33;;;;;;;4.13;1.90;;;;;;;19.61;77.20;101976.84;4850820;29;20461;-90
2023/08/16 08:29:58;;;;;;;7.03;2.03;;;;;;;19.66;77.97;101980.09;4852083;29;20499;-90
2023/08/16 08:32:24;;;;;;;4.07;1.90;;;;;;;19.71;77.49;101984.25;4850802;29;20502;-91
2023/08/16 08:34:49;;;;;;;3.63;2.20;;;;;;;19.76;76.25;101989.31;4854714;29;20318;-92
2023/08/16 08:37:14;;;;;;;3.10;2.05;;;;;;;19.80;77.16;101982.97;4852540;29;20048;-92
2023/08/16 08:39:39;;;;;;;3.92;1.80;;;;;;;19.84;77.61;101983.69;4850880;29;20097;-92
2023/08/16 08:42:08;;;;;;;3.42;1.90;;;;;;;19.85;76.62;101983.59;4855462;29;20505;-91
2023/08/16 08:44:35;;;;;;;5.25;2.05;;;;;;;19.87;76.61;101978.28;4858505;29;20721;-91
2023/08/16 08:47:05;;;;;;;6.10;1.90;;;;;;;19.88;76.54;101979.13;4856118;29;20029;-91
2023/08/16 08:49:32;;;;;;;4.53;2.00;;;;;;;19.90;75.74;101988.69;4851038;29;20026;-90
2023/08/16 08:51:58;;;;;;;4.13;2.00;;;;;;;19.93;76.62;101990.34;4850022;29;20510;-91
2023/08/16 08:54:24;;;;;;;3.72;1.90;;;;;;;19.95;76.30;101984.06;4848771;29;20399;-90
2023/08/16 08:56:52;;;;;;;2.85;2.03;;;;;;;19.99;76.05;101984.75;4855181;29;20032;-91
2023/08/16 08:59:17;;;;;;;3.72;1.90;;;;;;;20.02;77.47;101988.13;4856376;29;20124;-91
2023/08/16 09:01:45;;;;;;;3.67;2.10;;;;;;;20.06;77.14;101993.28;4853950;29;20167;-92
2023/08/16 09:04:13;;;;;;;5.88;2.30;;;;;;;20.08;75.17;101994.91;4854420;29;20041;-92
2023/08/16 09:06:39;;;;;;;5.30;2.47;;;;;;;20.10;75.38;102002.75;4847586;29;20040;-91
2023/08/16 09:09:05;;;;;;;5.47;2.17;;;;;;;20.10;75.83;102000.97;4845379;29;20038;-90
2023/08/16 09:11:30;;;;;;;3.97;2.20;;;;;;;20.13;76.25;101995.56;4846391;29;20037;-90
2023/08/16 09:14:02;;;;;;;4.25;2.35;;;;;;;20.20;75.98;101997.88;4843487;29;20037;-92
2023/08/16 09:16:27;;;;;;;5.22;2.58;;;;;;;20.27;75.28;101994.84;4843390;29;20025;-91
2023/08/16 09:18:53;;;;;;;4.43;2.25;;;;;;;20.33;74.60;101996.34;4843062;29;20053;-92
2023/08/16 09:21:19;;;;;;;3.20;2.22;;;;;;;20.39;75.09;101989.94;4845761;29;20650;-92
2023/08/16 09:23:45;;;;;;;4.28;2.33;;;;;;;20.45;74.87;101998.41;4843626;29;20062;-91
2023/08/16 09:26:15;;;;;;;3.05;2.03;;;;;;;20.57;75.11;101994.31;4846649;29;20029;-90
2023/08/16 09:28:40;;;;;;;4.87;2.20;;;;;;;20.67;74.90;101997.31;4844772;29;20327;-89
2023/08/16 09:31:06;;;;;;;4.60;2.05;;;;;;;20.75;74.16;101992.56;4842819;29;20042;-89
2023/08/16 09:33:34;;;;;;;4.75;2.35;;;;;;;20.81;73.27;101983.44;4840548;29;20112;-88
2023/08/16 09:35:59;;;;;;;4.38;2.25;;;;;;;20.84;72.95;101991.22;4845642;29;20129;-88
2023/08/16 09:38:24;;;;;;;3.85;2.10;;;;;;;20.89;73.06;101993.63;4847697;29;20116;-89
2023/08/16 09:40:53;;;;;;;5.13;2.50;;;;;;;20.89;71.83;101988.34;4850265;29;20502;-90
2023/08/16 09:43:19;;;;;;;4.55;2.00;;;;;;;20.94;73.71;101988.97;4848936;29;20093;-90
2023/08/16 09:45:50;;;;;;;4.28;2.40;;;;;;;20.93;72.83;101996.03;4843146;29;20030;-89
2023/08/16 09:48:15;;;;;;;4.53;2.13;;;;;;;20.93;72.03;101992.53;4843006;29;20029;-88
2023/08/16 09:50:41;;;;;;;4.85;2.20;;;;;;;20.95;72.72;101995.97;4842712;29;20025;-88
2023/08/16 09:53:06;;;;;;;4.50;2.22;;;;;;;20.98;73.34;101987.88;4846292;29;20049;-88
2023/08/16 09:55:33;;;;;;;4.68;2.03;;;;;;;21.04;72.79;101986.69;4851023;29;20069;-88
2023/08/16 09:58:00;;;;;;;3.47;2.45;;;;;;;21.11;73.61;101990.72;4850550;29;20037;-87
2023/08/16 10:00:27;;;;;;;3.88;2.20;;;;;;;21.22;73.06;101995.47;4825955;29;20439;-88
2023/08/16 10:02:53;;;;;;;3.78;2.25;;;;;;;21.29;72.01;102002.16;4846135;29;20036;-88
2023/08/16 10:05:19;;;;;;;5.00;2.40;;;;;;;21.34;71.80;102002.78;4851959;29;20085;-89
2023/08/16 10:07:47;;;;;;;3.53;1.95;;;;;;;21.38;72.00;102004.28;4853212;29;20025;-88
2023/08/16 10:10:13;;;;;;;4.47;2.20;;;;;;;21.40;71.74;101992.78;4828880;29;20029;-88
2023/08/16 10:12:39;;;;;;;5.10;2.60;;;;;;;21.42;70.73;101986.47;4846338;29;20033;-89
2023/08/16 10:15:05;;;;;;;4.85;2.35;;;;;;;21.46;72.34;101997.75;4843734;29;20121;-89
2023/08/16 10:17:32;;;;;;;4.57;2.72;;;;;;;21.48;71.25;101994.06;4846021;29;20029;-90
2023/08/16 10:20:04;;;;;;;4.47;2.10;;;;;;;21.50;71.10;101988.72;4847955;29;20047;-88
2023/08/16 10:22:37;;;;;;;5.47;2.60;;;;;;;21.52;70.90;101997.44;4836669;29;20064;-88
2023/08/16 10:25:16;;;;;;;4.00;2.35;;;;;;;21.52;70.47;101989.50;4852722;29;20112;-88
2023/08/16 10:27:44;;;;;;;3.15;2.22;;;;;;;21.53;70.49;101988.53;4836730;29;20030;-89
2023/08/16 10:30:18;;;;;;;3.78;2.45;;;;;;;21.54;70.62;101992.88;4849463;29;20496;-89
2023/08/16 10:32:45;;;;;;;4.25;2.53;;;;;;;21.53;70.07;101992.03;4847134;29;20053;-88
2023/08/16 10:35:11;;;;;;;3.53;2.28;;;;;;;21.55;70.94;101989.31;4840868;29;20064;-88
2023/08/16 10:37:37;;;;;;;4.30;2.47;;;;;;;21.59;71.63;101974.13;4841655;29;20053;-89
2023/08/16 10:40:03;;;;;;;4.30;2.40;;;;;;;21.64;70.97;101977.38;4851267;29;20108;-89
2023/08/16 10:42:28;;;;;;;4.40;2.33;;;;;;;21.71;71.63;101981.41;4844724;29;20435;-92
2023/08/16 10:44:53;;;;;;;3.72;2.22;;;;;;;21.77;70.16;101988.16;4847946;29;20108;-89
2023/08/16 10:47:29;;;;;;;5.22;2.50;;;;;;;21.81;70.47;101987.06;4850260;29;20030;-89
2023/08/16 10:49:54;;;;;;;4.40;2.28;;;;;;;21.88;69.61;101984.94;4841904;29;20152;-90
2023/08/16 10:52:29;;;;;;;5.82;2.53;;;;;;;21.92;69.53;101984.66;4850636;29;20162;-89
2023/08/16 10:54:55;;;;;;;5.97;2.40;;;;;;;21.98;70.25;101986.97;4845143;29;20405;-90
2023/08/16 10:57:25;;;;;;;3.35;2.13;;;;;;;22.02;70.75;101984.16;4848494;29;20045;-89
2023/08/16 11:00:01;;;;;;;4.15;2.35;;;;;;;22.01;70.36;101977.16;4850617;29;20033;-90
2023/08/16 11:02:30;;;;;;;4.65;2.40;;;;;;;22.00;71.80;101973.63;4847069;29;20119;-89
2023/08/16 11:04:56;;;;;;;3.40;1.98;;;;;;;21.97;71.40;101972.03;4852494;29;20033;-88
2023/08/16 11:07:22;;;;;;;3.97;2.33;;;;;;;21.96;71.06;101975.63;4852848;29;20029;-89
2023/08/16 11:09:47;;;;;;;3.17;2.10;;;;;;;21.97;69.27;101972.03;4847934;29;20077;-90
2023/08/16 11:12:15;;;;;;;4.05;2.47;;;;;;;22.03;69.48;101980.59;4844363;29;20109;-88
2023/08/16 11:14:41;;;;;;;4.40;2.60;;;;;;;22.12;70.93;101975.59;4849760;29;20079;-88
2023/08/16 11:17:06;;;;;;;4.68;2.47;;;;;;;22.18;68.37;101974.41;4843402;29;20076;-90
2023/08/16 11:19:33;;;;;;;3.63;2.47;;;;;;;22.23;68.67;101980.28;4839811;29;20037;-89